createdAt,value
2023-03-11T00:01:11.236Z,8.84
2023-03-11T00:03:45.089Z,8.87
2023-03-11T00:06:18.809Z,8.85
2023-03-11T00:08:48.904Z,8.92
2023-03-11T00:11:20.350Z,8.84
2023-03-11T00:13:52.645Z,8.74
2023-03-11T00:16:23.019Z,8.54
2023-03-11T00:18:54.822Z,8.56
2023-03-11T00:21:27.728Z,8.58
2023-03-11T00:24:01.559Z,8.54
2023-03-11T00:26:32.885Z,8.51
2023-03-11T00:29:03.565Z,8.56
2023-03-11T00:31:34.436Z,8.50
2023-03-11T00:34:09.686Z,8.44
2023-03-11T00:36:45.436Z,8.41
2023-03-11T00:39:18.585Z,8.31
2023-03-11T00:41:48.771Z,8.30
2023-03-11T00:44:19.227Z,8.34
2023-03-11T00:46:51.963Z,8.35
2023-03-11T00:49:22.461Z,8.32
2023-03-11T00:51:55.852Z,8.24
2023-03-11T00:54:25.977Z,8.12
2023-03-11T00:56:58.760Z,8.05
2023-03-11T00:59:30.324Z,8.03
2023-03-11T01:02:04.547Z,7.97
2023-03-11T01:04:39.621Z,7.83
2023-03-11T01:07:17.930Z,7.89
2023-03-11T01:09:48.134Z,7.75
2023-03-11T01:12:21.209Z,7.81
2023-03-11T01:14:54.561Z,7.74
2023-03-11T01:17:25.069Z,7.64
2023-03-11T01:20:01.006Z,7.60
2023-03-11T01:22:35.343Z,7.53
2023-03-11T01:25:07.672Z,7.52
2023-03-11T01:27:37.791Z,7.50
2023-03-11T01:30:09.246Z,7.41
2023-03-11T01:32:39.545Z,7.32
2023-03-11T01:35:10.859Z,7.19
2023-03-11T01:37:46.426Z,7.32
2023-03-11T01:40:32.369Z,7.07
2023-03-11T01:43:08.816Z,7.20
2023-03-11T01:45:45.310Z,7.28
2023-03-11T01:48:15.783Z,7.16
2023-03-11T01:50:50.149Z,7.02
2023-03-11T01:53:33.196Z,7.08
2023-03-11T01:56:08.705Z,7.00
2023-03-11T01:58:45.395Z,6.99
2023-03-11T02:01:18.633Z,7.11
2023-03-11T02:03:51.664Z,7.06
2023-03-11T02:06:26.320Z,6.84
2023-03-11T02:09:09.365Z,6.83
2023-03-11T02:11:39.875Z,7.01
2023-03-11T02:14:12.761Z,6.96
2023-03-11T02:16:42.878Z,6.90
2023-03-11T02:19:26.104Z,6.88
2023-03-11T02:21:56.623Z,7.04
2023-03-11T02:24:43.302Z,6.89
2023-03-11T02:27:21.477Z,6.89
2023-03-11T02:29:54.816Z,6.96
2023-03-11T02:32:26.199Z,7.05
2023-03-11T02:34:56.476Z,6.88
2023-03-11T02:37:26.809Z,7.02
2023-03-11T02:40:38.164Z,7.03
2023-03-11T02:43:14.665Z,6.98
2023-03-11T02:45:48.474Z,7.03
2023-03-11T02:48:19.870Z,7.00
2023-03-11T02:50:50.352Z,7.01
2023-03-11T02:53:23.322Z,7.00
2023-03-11T02:55:53.866Z,6.99
2023-03-11T02:58:26.835Z,7.10
2023-03-11T03:00:57.301Z,7.17
2023-03-11T03:03:27.487Z,7.27
2023-03-11T03:05:57.807Z,7.31
2023-03-11T03:08:28.004Z,7.27
2023-03-11T03:11:00.125Z,7.34
2023-03-11T03:13:33.822Z,7.64
2023-03-11T03:16:05.806Z,7.67
2023-03-11T03:18:36.446Z,7.77
2023-03-11T03:21:07.223Z,7.78
2023-03-11T03:23:38.035Z,7.77
2023-03-11T03:26:09.271Z,7.76
2023-03-11T03:28:44.343Z,7.89
2023-03-11T03:31:14.944Z,7.98
2023-03-11T03:33:46.778Z,8.05
2023-03-11T03:36:18.704Z,8.18
2023-03-11T03:38:59.672Z,8.21
2023-03-11T03:41:35.010Z,8.12
2023-03-11T03:44:08.643Z,8.09
2023-03-11T03:46:39.762Z,7.93
2023-03-11T03:49:13.056Z,7.94
2023-03-11T03:51:43.553Z,8.00
2023-03-11T03:54:20.961Z,7.87
2023-03-11T03:56:51.160Z,7.77
2023-03-11T03:59:24.579Z,7.76
2023-03-11T04:02:00.734Z,7.58
2023-03-11T04:04:33.633Z,7.47
2023-03-11T04:07:03.996Z,7.36
2023-03-11T04:09:34.191Z,7.49
2023-03-11T04:12:04.556Z,7.35
2023-03-11T04:14:40.160Z,7.30
2023-03-11T04:17:10.494Z,7.21
2023-03-11T04:19:40.764Z,7.07
2023-03-11T04:22:11.654Z,7.08
2023-03-11T04:24:42.940Z,7.12
2023-03-11T04:27:13.210Z,7.03
2023-03-11T04:29:46.539Z,6.95
2023-03-11T04:32:16.702Z,6.85
2023-03-11T04:34:49.503Z,6.75
2023-03-11T04:37:23.067Z,6.82
2023-03-11T04:39:55.332Z,6.85
2023-03-11T04:42:26.484Z,6.59
2023-03-11T04:45:00.259Z,6.51
2023-03-11T04:47:33.541Z,6.43
2023-03-11T04:50:06.893Z,6.63
2023-03-11T04:52:42.547Z,6.67
2023-03-11T04:55:16.929Z,6.74
2023-03-11T04:57:49.428Z,6.71
2023-03-11T05:00:27.261Z,6.77
2023-03-11T05:03:09.812Z,6.70
2023-03-11T05:05:40.189Z,6.79
2023-03-11T05:08:11.098Z,6.82
2023-03-11T05:10:43.069Z,6.84
2023-03-11T05:13:13.976Z,6.67
2023-03-11T05:15:53.303Z,6.64
2023-03-11T05:18:24.860Z,6.61
2023-03-11T05:20:57.778Z,6.69
2023-03-11T05:23:31.842Z,6.64
2023-03-11T05:26:02.466Z,6.56
2023-03-11T05:28:35.369Z,6.43
2023-03-11T05:31:18.178Z,6.33
2023-03-11T05:33:49.722Z,6.24
2023-03-11T05:36:19.938Z,6.22
2023-03-11T05:38:51.332Z,6.20
2023-03-11T05:41:22.656Z,6.06
2023-03-11T05:43:53.510Z,5.99
2023-03-11T05:46:29.156Z,5.91
2023-03-11T05:49:00.460Z,5.90
2023-03-11T05:51:31.562Z,5.77
2023-03-11T05:54:02.558Z,5.69
2023-03-11T05:56:41.686Z,5.68
2023-03-11T05:59:16.397Z,5.54
2023-03-11T06:01:51.770Z,5.52
2023-03-11T06:04:22.348Z,5.45
2023-03-11T06:06:53.096Z,5.37
2023-03-11T06:09:26.786Z,5.38
2023-03-11T06:11:57.371Z,5.34
2023-03-11T06:14:33.566Z,5.35
2023-03-11T06:17:07.815Z,5.27
2023-03-11T06:19:38.446Z,5.23
2023-03-11T06:22:12.837Z,5.21
2023-03-11T06:24:43.159Z,5.17
2023-03-11T06:27:14.617Z,5.13
2023-03-11T06:29:47.672Z,5.18
2023-03-11T06:32:22.013Z,5.14
2023-03-11T06:34:55.749Z,5.07
2023-03-11T06:37:27.817Z,5.00
2023-03-11T06:39:59.700Z,5.10
2023-03-11T06:42:30.370Z,5.21
2023-03-11T06:45:02.994Z,5.02
2023-03-11T06:47:36.508Z,5.03
2023-03-11T06:50:09.361Z,5.03
2023-03-11T06:52:40.364Z,4.97
2023-03-11T06:55:12.501Z,5.00
2023-03-11T06:57:45.934Z,5.01
2023-03-11T07:00:18.092Z,4.94
2023-03-11T07:02:56.416Z,4.89
2023-03-11T07:05:28.576Z,4.95
2023-03-11T07:08:04.538Z,4.91
2023-03-11T07:10:35.901Z,4.89
2023-03-11T07:13:06.723Z,4.89
2023-03-11T07:15:37.220Z,4.84
2023-03-11T07:18:10.162Z,4.89
2023-03-11T07:20:40.606Z,4.89
2023-03-11T07:23:10.760Z,4.92
2023-03-11T07:25:41.070Z,4.89
2023-03-11T07:28:11.429Z,4.82
2023-03-11T07:30:44.607Z,4.76
2023-03-11T07:33:18.751Z,4.74
2023-03-11T07:35:50.261Z,4.82
2023-03-11T07:38:21.120Z,4.90
2023-03-11T07:41:00.545Z,5.12
2023-03-11T07:43:32.871Z,5.31
2023-03-11T07:46:08.245Z,5.29
2023-03-11T07:48:42.502Z,5.17
2023-03-11T07:51:17.220Z,5.31
2023-03-11T07:53:47.961Z,5.46
2023-03-11T07:56:20.387Z,5.46
2023-03-11T07:58:51.048Z,5.37
2023-03-11T08:01:24.445Z,5.35
2023-03-11T08:03:59.535Z,5.32
2023-03-11T08:06:32.679Z,5.31
2023-03-11T08:09:04.895Z,5.43
2023-03-11T08:11:35.749Z,5.23
2023-03-11T08:14:07.626Z,5.41
2023-03-11T08:16:37.830Z,5.27
2023-03-11T08:19:10.800Z,5.32
2023-03-11T08:21:41.024Z,5.34
2023-03-11T08:24:13.727Z,5.41
2023-03-11T08:26:44.418Z,5.46
2023-03-11T08:29:14.584Z,5.32
2023-03-11T08:31:45.050Z,5.49
2023-03-11T08:34:21.789Z,5.33
2023-03-11T08:36:52.560Z,5.37
2023-03-11T08:39:24.319Z,5.47
2023-03-11T08:41:54.875Z,5.45
2023-03-11T08:44:25.384Z,5.40
2023-03-11T08:46:55.990Z,5.46
2023-03-11T08:49:29.309Z,5.60
2023-03-11T08:51:59.633Z,5.64
2023-03-11T08:54:29.797Z,5.86
2023-03-11T08:57:03.113Z,6.52
2023-03-11T08:59:35.257Z,6.58
2023-03-11T09:02:05.419Z,6.73
2023-03-11T09:04:39.102Z,6.55
2023-03-11T09:07:09.186Z,6.11
2023-03-11T09:09:39.550Z,5.88
2023-03-11T09:12:14.584Z,5.83
2023-03-11T09:14:44.683Z,5.82
2023-03-11T09:17:15.304Z,5.64
2023-03-11T09:19:48.163Z,5.74
2023-03-11T09:22:20.316Z,6.26
2023-03-11T09:24:50.354Z,6.49
2023-03-11T09:27:24.274Z,7.09
2023-03-11T09:29:55.876Z,7.48
2023-03-11T09:32:30.821Z,6.77
2023-03-11T09:35:04.709Z,6.32
2023-03-11T09:37:36.560Z,6.72
2023-03-11T09:40:08.122Z,6.83
2023-03-11T09:42:46.079Z,6.84
2023-03-11T09:45:22.147Z,6.77
2023-03-11T09:48:10.706Z,6.92
2023-03-11T09:50:51.318Z,6.47
2023-03-11T09:53:36.733Z,6.78
2023-03-11T09:56:10.330Z,6.91
2023-03-11T09:58:47.358Z,6.61
2023-03-11T10:01:25.250Z,6.98
2023-03-11T10:03:58.997Z,6.55
2023-03-11T10:06:34.135Z,6.72
2023-03-11T10:09:13.787Z,6.99
2023-03-11T10:11:55.037Z,7.05
2023-03-11T10:14:49.955Z,7.11
2023-03-11T10:17:34.889Z,7.36
2023-03-11T10:20:13.981Z,7.44
2023-03-11T10:22:56.181Z,7.28
2023-03-11T10:25:30.702Z,7.47
2023-03-11T10:28:05.866Z,7.55
2023-03-11T10:30:43.992Z,7.82
2023-03-11T10:33:25.511Z,7.83
2023-03-11T10:35:57.860Z,7.92
2023-03-11T10:38:36.019Z,7.69
2023-03-11T10:41:14.205Z,8.02
2023-03-11T10:43:49.811Z,8.22
2023-03-11T10:46:24.146Z,7.85
2023-03-11T10:48:54.596Z,7.82
2023-03-11T10:51:27.195Z,8.14
2023-03-11T10:54:01.958Z,8.12
2023-03-11T10:56:34.580Z,7.99
2023-03-11T10:59:06.834Z,8.14
2023-03-11T11:01:37.592Z,8.20
2023-03-11T11:04:30.321Z,8.16
2023-03-11T11:07:01.621Z,8.17
2023-03-11T11:09:38.058Z,8.48
2023-03-11T11:12:09.929Z,8.49
2023-03-11T11:14:51.852Z,8.56
2023-03-11T11:17:27.444Z,8.65
2023-03-11T11:19:59.412Z,9.08
2023-03-11T11:22:32.416Z,8.95
2023-03-11T11:25:05.145Z,8.32
2023-03-11T11:27:35.269Z,8.64
2023-03-11T11:30:19.045Z,8.48
2023-03-11T11:32:49.402Z,7.90
2023-03-11T11:35:20.611Z,7.98
2023-03-11T11:37:52.683Z,7.98
2023-03-11T11:40:30.656Z,8.12
2023-03-11T11:43:04.357Z,8.25
2023-03-11T11:45:41.373Z,8.18
2023-03-11T11:48:21.018Z,7.63
2023-03-11T11:50:56.477Z,7.73
2023-03-11T11:53:38.355Z,7.35
2023-03-11T11:56:11.098Z,7.68
2023-03-11T11:58:42.896Z,7.90
2023-03-11T12:01:19.600Z,7.87
2023-03-11T12:04:28.617Z,7.67
2023-03-11T12:07:14.902Z,7.76
2023-03-11T12:09:55.117Z,7.77
2023-03-11T12:12:35.718Z,7.57
2023-03-11T12:15:14.764Z,7.63
2023-03-11T12:17:48.007Z,7.25
2023-03-11T12:20:28.042Z,6.89
2023-03-11T12:23:18.554Z,6.73
2023-03-11T12:26:00.810Z,6.75
2023-03-11T12:28:42.277Z,6.64
2023-03-11T12:31:15.327Z,6.59
2023-03-11T12:33:48.918Z,6.65
2023-03-11T12:36:31.330Z,6.63
2023-03-11T12:39:05.553Z,6.62
2023-03-11T12:41:39.924Z,6.83
2023-03-11T12:44:29.021Z,6.85
2023-03-11T12:47:20.991Z,6.87
2023-03-11T12:49:51.917Z,7.04
2023-03-11T12:52:34.554Z,7.21
2023-03-11T12:55:34.727Z,7.71
2023-03-11T12:58:30.090Z,7.88
2023-03-11T13:01:20.584Z,7.99
2023-03-11T13:04:01.604Z,8.20
2023-03-11T13:07:04.913Z,8.07
2023-03-11T13:09:35.662Z,7.46
2023-03-11T13:12:05.789Z,7.47
2023-03-11T13:14:39.275Z,7.67
2023-03-11T13:17:31.042Z,7.94
2023-03-11T13:20:02.809Z,8.07
2023-03-11T13:23:17.816Z,8.20
2023-03-11T13:26:01.078Z,7.50
2023-03-11T13:29:13.289Z,6.93
2023-03-11T13:31:59.159Z,7.08
2023-03-11T13:34:41.971Z,7.30
2023-03-11T13:37:28.365Z,7.21
2023-03-11T13:40:22.318Z,7.07
2023-03-11T13:42:58.122Z,7.21
2023-03-11T13:45:34.624Z,7.15
2023-03-11T13:48:11.109Z,6.92
2023-03-11T13:50:49.001Z,6.91
2023-03-11T13:53:26.110Z,7.06
2023-03-11T13:55:56.380Z,7.19
2023-03-11T13:58:29.087Z,7.22
2023-03-11T14:01:02.554Z,7.01
2023-03-11T14:03:39.577Z,7.11
2023-03-11T14:06:19.725Z,7.27
2023-03-11T14:08:56.365Z,7.12
2023-03-11T14:11:30.222Z,7.21
2023-03-11T14:14:00.040Z,7.16
2023-03-11T14:16:36.469Z,7.30
2023-03-11T14:19:11.537Z,7.51
2023-03-11T14:21:48.731Z,7.16
2023-03-11T14:24:21.498Z,6.91
2023-03-11T14:26:55.319Z,6.87
2023-03-11T14:29:29.381Z,6.73
2023-03-11T14:31:59.731Z,6.57
2023-03-11T14:34:31.902Z,6.60
2023-03-11T14:37:05.324Z,6.67
2023-03-11T14:39:36.902Z,6.63
2023-03-11T14:42:18.957Z,6.77
2023-03-11T14:44:54.780Z,6.39
2023-03-11T14:47:32.733Z,6.22
2023-03-11T14:50:04.050Z,6.02
2023-03-11T14:52:44.584Z,5.86
2023-03-11T14:55:18.498Z,5.90
2023-03-11T14:57:49.646Z,5.71
2023-03-11T15:00:25.816Z,5.61
2023-03-11T15:03:19.765Z,5.49
2023-03-11T15:05:53.200Z,5.63
2023-03-11T15:08:30.940Z,5.67
2023-03-11T15:11:09.883Z,5.73
2023-03-11T15:13:42.107Z,5.84
2023-03-11T15:16:26.717Z,5.95
2023-03-11T15:18:57.800Z,5.70
2023-03-11T15:21:28.311Z,5.66
2023-03-11T15:24:07.024Z,5.70
2023-03-11T15:26:38.579Z,5.68
2023-03-11T15:29:17.409Z,5.71
2023-03-11T15:31:48.739Z,5.42
2023-03-11T15:34:28.666Z,5.48
2023-03-11T15:37:02.792Z,5.34
2023-03-11T15:39:48.692Z,5.18
2023-03-11T15:42:23.172Z,5.11
2023-03-11T15:45:05.820Z,5.00
2023-03-11T15:47:36.223Z,4.91
2023-03-11T15:50:24.238Z,4.85
2023-03-11T15:52:57.333Z,4.79
2023-03-11T15:55:30.818Z,4.75
2023-03-11T15:58:05.582Z,4.75
2023-03-11T16:00:36.578Z,4.81
2023-03-11T16:03:07.817Z,4.80
2023-03-11T16:05:37.940Z,4.83
2023-03-11T16:08:08.441Z,4.78
2023-03-11T16:10:42.664Z,4.82
2023-03-11T16:13:15.757Z,4.71
2023-03-11T16:15:47.316Z,4.61
2023-03-11T16:18:17.604Z,4.69
2023-03-11T16:20:50.997Z,4.68
2023-03-11T16:23:23.907Z,4.64
2023-03-11T16:25:58.786Z,4.54
2023-03-11T16:28:28.908Z,4.54
2023-03-11T16:31:05.259Z,4.45
2023-03-11T16:33:38.043Z,4.31
2023-03-11T16:36:09.263Z,4.29
2023-03-11T16:38:47.250Z,4.19
2023-03-11T16:41:20.889Z,4.15
2023-03-11T16:43:51.267Z,4.11
2023-03-11T16:46:21.616Z,4.05
2023-03-11T16:48:53.693Z,3.98
2023-03-11T16:51:23.929Z,3.94
2023-03-11T16:53:54.311Z,3.88
2023-03-11T16:56:32.274Z,3.81
2023-03-11T16:59:02.519Z,3.74
2023-03-11T17:01:34.568Z,3.60
2023-03-11T17:04:06.567Z,3.53
2023-03-11T17:06:40.423Z,3.47
2023-03-11T17:09:12.048Z,3.51
2023-03-11T17:11:50.569Z,3.42
2023-03-11T17:14:22.936Z,3.38
2023-03-11T17:16:54.725Z,3.61
2023-03-11T17:19:25.204Z,3.53
2023-03-11T17:21:58.506Z,3.51
2023-03-11T17:24:31.472Z,3.44
2023-03-11T17:27:05.051Z,3.46
2023-03-11T17:29:49.226Z,3.47
2023-03-11T17:32:24.415Z,3.41
2023-03-11T17:35:00.286Z,3.29
2023-03-11T17:37:30.497Z,3.33
2023-03-11T17:40:01.032Z,3.34
2023-03-11T17:42:34.161Z,3.30
2023-03-11T17:45:05.438Z,3.31
2023-03-11T17:47:44.045Z,3.17
2023-03-11T17:50:17.402Z,3.16
2023-03-11T17:52:49.918Z,3.23
2023-03-11T17:55:24.786Z,3.16
2023-03-11T17:58:04.803Z,3.09
2023-03-11T18:00:37.936Z,3.12
2023-03-11T18:03:10.089Z,3.10
2023-03-11T18:05:40.406Z,3.02
2023-03-11T18:08:11.269Z,3.08
2023-03-11T18:10:41.355Z,3.07
2023-03-11T18:13:15.030Z,3.05
2023-03-11T18:15:45.620Z,2.99
2023-03-11T18:18:16.330Z,2.96
2023-03-11T18:20:48.170Z,2.86
2023-03-11T18:23:21.390Z,2.80
2023-03-11T18:25:56.848Z,2.81
2023-03-11T18:28:33.313Z,2.82
2023-03-11T18:31:09.483Z,2.82
2023-03-11T18:33:51.263Z,2.71
2023-03-11T18:36:31.905Z,2.66
2023-03-11T18:39:05.429Z,2.68
2023-03-11T18:41:37.697Z,2.68
2023-03-11T18:44:12.570Z,2.61
2023-03-11T18:46:46.638Z,2.56
2023-03-11T18:49:17.280Z,2.44
2023-03-11T18:51:48.006Z,2.52
2023-03-11T18:54:18.668Z,2.52
2023-03-11T18:56:49.943Z,2.41
2023-03-11T18:59:24.572Z,2.41
2023-03-11T19:01:58.959Z,2.35
2023-03-11T19:04:30.082Z,2.23
2023-03-11T19:07:00.483Z,2.21
2023-03-11T19:09:32.210Z,2.24
2023-03-11T19:12:06.192Z,2.27
2023-03-11T19:14:44.158Z,2.22
2023-03-11T19:17:16.635Z,2.20
2023-03-11T19:19:53.965Z,2.19
2023-03-11T19:22:27.169Z,2.13
2023-03-11T19:25:01.130Z,2.19
2023-03-11T19:27:35.359Z,2.17
2023-03-11T19:30:17.173Z,2.20
2023-03-11T19:32:52.330Z,2.02
2023-03-11T19:35:24.847Z,2.07
2023-03-11T19:38:00.784Z,2.18
2023-03-11T19:40:39.296Z,2.08
2023-03-11T19:43:11.402Z,2.09
2023-03-11T19:45:45.518Z,2.12
2023-03-11T19:48:17.184Z,2.17
2023-03-11T19:50:50.142Z,2.19
2023-03-11T19:53:22.266Z,2.10
2023-03-11T19:55:55.718Z,2.08
2023-03-11T19:58:30.913Z,2.06
2023-03-11T20:01:05.170Z,1.94
2023-03-11T20:03:38.589Z,1.95
2023-03-11T20:06:11.341Z,1.89
2023-03-11T20:08:48.109Z,1.79
2023-03-11T20:11:24.400Z,1.71
2023-03-11T20:13:58.276Z,1.62
2023-03-11T20:16:32.126Z,1.66
2023-03-11T20:19:04.051Z,1.55
2023-03-11T20:21:43.884Z,1.50
2023-03-11T20:24:16.292Z,1.32
2023-03-11T20:26:51.370Z,1.33
2023-03-11T20:29:22.077Z,1.31
2023-03-11T20:31:59.014Z,1.30
2023-03-11T20:34:29.637Z,1.31
2023-03-11T20:37:03.358Z,1.28
2023-03-11T20:39:34.589Z,1.22
2023-03-11T20:42:05.353Z,1.17
2023-03-11T20:44:47.942Z,1.17
2023-03-11T20:47:21.075Z,1.11
2023-03-11T20:49:51.970Z,1.23
2023-03-11T20:52:22.135Z,1.26
2023-03-11T20:54:52.730Z,1.10
2023-03-11T20:57:24.081Z,1.22
2023-03-11T20:59:54.935Z,1.29
2023-03-11T21:02:30.754Z,1.35
2023-03-11T21:05:06.722Z,1.36
2023-03-11T21:07:37.654Z,1.41
2023-03-11T21:10:12.859Z,1.38
2023-03-11T21:12:46.065Z,1.33
2023-03-11T21:15:17.505Z,1.33
2023-03-11T21:17:50.770Z,1.30
2023-03-11T21:20:30.016Z,1.21
2023-03-11T21:23:04.054Z,1.10
2023-03-11T21:25:42.951Z,1.17
2023-03-11T21:28:14.200Z,1.17
2023-03-11T21:30:48.841Z,1.17
2023-03-11T21:33:25.157Z,1.15
2023-03-11T21:35:59.579Z,1.12
2023-03-11T21:38:33.168Z,1.06
2023-03-11T21:41:14.435Z,1.12
2023-03-11T21:43:46.695Z,1.04
2023-03-11T21:46:21.150Z,1.09
2023-03-11T21:48:54.786Z,0.99
2023-03-11T21:51:27.495Z,1.01
2023-03-11T21:54:00.258Z,0.96
2023-03-11T21:56:32.120Z,0.92
2023-03-11T21:59:03.985Z,1.04
2023-03-11T22:01:35.503Z,1.04
2023-03-11T22:04:09.126Z,1.15
2023-03-11T22:06:40.850Z,1.06
2023-03-11T22:09:11.047Z,1.07
2023-03-11T22:11:42.220Z,1.03
2023-03-11T22:14:13.524Z,1.03
2023-03-11T22:16:49.411Z,1.01
2023-03-11T22:19:26.199Z,0.94
2023-03-11T22:22:01.282Z,0.89
2023-03-11T22:24:31.961Z,0.92
2023-03-11T22:27:08.202Z,0.91
2023-03-11T22:29:44.462Z,0.90
2023-03-11T22:32:14.882Z,0.92
2023-03-11T22:34:48.789Z,0.89
2023-03-11T22:37:19.156Z,0.82
2023-03-11T22:39:50.156Z,0.90
2023-03-11T22:42:21.224Z,0.74
2023-03-11T22:44:52.286Z,0.72
2023-03-11T22:47:24.278Z,0.77
2023-03-11T22:49:57.504Z,0.76
2023-03-11T22:52:29.526Z,0.83
2023-03-11T22:54:59.912Z,0.82
2023-03-11T22:57:39.460Z,0.75
2023-03-11T23:00:19.284Z,0.72
2023-03-11T23:02:50.864Z,0.72
2023-03-11T23:05:25.356Z,0.75
2023-03-11T23:07:55.718Z,0.70
2023-03-11T23:10:26.131Z,0.67
2023-03-11T23:12:56.773Z,0.61
2023-03-11T23:15:30.084Z,0.57
2023-03-11T23:18:01.305Z,0.61
2023-03-11T23:20:39.854Z,0.56
2023-03-11T23:23:15.012Z,0.63
2023-03-11T23:25:45.271Z,0.54
2023-03-11T23:28:15.591Z,0.56
2023-03-11T23:30:47.573Z,0.54
2023-03-11T23:33:18.040Z,0.44
2023-03-11T23:35:52.446Z,0.45
2023-03-11T23:38:24.271Z,0.46
2023-03-11T23:40:56.252Z,0.44
2023-03-11T23:43:27.490Z,0.37
2023-03-11T23:45:58.634Z,0.33
2023-03-11T23:48:28.959Z,0.32
2023-03-11T23:51:03.329Z,0.26
2023-03-11T23:53:35.054Z,0.30
2023-03-11T23:56:11.778Z,0.24
2023-03-11T23:58:44.227Z,0.25
